createdAt,value
2022-09-21T00:00:25.065Z,1002.38
2022-09-21T00:01:25.126Z,1002.39
2022-09-21T00:02:25.091Z,1002.38
2022-09-21T00:03:25.005Z,1002.39
2022-09-21T00:04:24.989Z,1002.38
2022-09-21T00:05:24.966Z,1002.40
2022-09-21T00:06:24.948Z,1002.39
2022-09-21T00:07:24.936Z,1002.35
2022-09-21T00:08:24.909Z,1002.33
2022-09-21T00:09:24.891Z,1002.34
2022-09-21T00:10:24.870Z,1002.35
2022-09-21T00:11:25.055Z,1002.36
2022-09-21T00:12:24.831Z,1002.36
2022-09-21T00:13:24.816Z,1002.36
2022-09-21T00:14:24.796Z,1002.39
2022-09-21T00:15:24.778Z,1002.39
2022-09-21T00:16:24.802Z,1002.39
2022-09-21T00:17:24.739Z,1002.38
2022-09-21T00:18:24.726Z,1002.40
2022-09-21T00:19:24.701Z,1002.40
2022-09-21T00:20:24.681Z,1002.42
2022-09-21T00:21:24.668Z,1002.42
2022-09-21T00:22:24.655Z,1002.40
2022-09-21T00:23:24.627Z,1002.42
2022-09-21T00:24:24.606Z,1002.36
2022-09-21T00:25:24.590Z,1002.42
2022-09-21T00:26:24.567Z,1002.43
2022-09-21T00:27:24.561Z,1002.40
2022-09-21T00:28:24.540Z,1002.38
2022-09-21T00:29:24.521Z,1002.38
2022-09-21T00:30:24.493Z,1002.43
2022-09-21T00:31:24.549Z,1002.40
2022-09-21T00:32:24.453Z,1002.39
2022-09-21T00:33:24.444Z,1002.41
2022-09-21T00:34:24.417Z,1002.44
2022-09-21T00:35:24.400Z,1002.37
2022-09-21T00:36:24.383Z,1002.38
2022-09-21T00:37:24.361Z,1002.41
2022-09-21T00:38:24.367Z,1002.42
2022-09-21T00:39:24.339Z,1002.37
2022-09-21T00:40:24.324Z,1002.44
2022-09-21T00:41:24.288Z,1002.45
2022-09-21T00:42:24.272Z,1002.48
2022-09-21T00:43:24.262Z,1002.47
2022-09-21T00:44:24.229Z,1002.48
2022-09-21T00:45:24.279Z,1002.50
2022-09-21T00:46:24.196Z,1002.49
2022-09-21T00:47:24.172Z,1002.48
2022-09-21T00:48:24.161Z,1002.49
2022-09-21T00:49:24.133Z,1002.49
2022-09-21T00:50:24.115Z,1002.49
2022-09-21T00:51:24.095Z,1002.45
2022-09-21T00:52:24.087Z,1002.47
2022-09-21T00:53:24.057Z,1002.47
2022-09-21T00:54:24.037Z,1002.50
2022-09-21T00:55:24.019Z,1002.48
2022-09-21T00:56:23.996Z,1002.47
2022-09-21T00:57:23.982Z,1002.45
2022-09-21T00:58:23.960Z,1002.44
2022-09-21T00:59:28.050Z,1002.49
2022-09-21T01:00:23.923Z,1002.49
2022-09-21T01:01:23.948Z,1002.44
2022-09-21T01:02:23.921Z,1002.47
2022-09-21T01:03:23.865Z,1002.47
2022-09-21T01:04:23.848Z,1002.49
2022-09-21T01:05:23.826Z,1002.50
2022-09-21T01:06:23.803Z,1002.48
2022-09-21T01:07:23.788Z,1002.51
2022-09-21T01:08:23.774Z,1002.52
2022-09-21T01:09:23.749Z,1002.56
2022-09-21T01:10:23.731Z,1002.57
2022-09-21T01:11:23.711Z,1002.61
2022-09-21T01:12:23.693Z,1002.60
2022-09-21T01:13:23.676Z,1002.57
2022-09-21T01:14:23.654Z,1002.61
2022-09-21T01:15:23.649Z,1002.65
2022-09-21T01:16:23.658Z,1002.61
2022-09-21T01:17:23.598Z,1002.60
2022-09-21T01:18:23.575Z,1002.59
2022-09-21T01:19:23.558Z,1002.61
2022-09-21T01:20:23.542Z,1002.60
2022-09-21T01:21:23.529Z,1002.56
2022-09-21T01:22:23.498Z,1002.61
2022-09-21T01:23:23.481Z,1002.58
2022-09-21T01:24:23.463Z,1002.58
2022-09-21T01:25:23.449Z,1002.60
2022-09-21T01:26:23.421Z,1002.59
2022-09-21T01:27:23.404Z,1002.60
2022-09-21T01:28:23.380Z,1002.61
2022-09-21T01:29:23.363Z,1002.60
2022-09-21T01:30:23.349Z,1002.59
2022-09-21T01:31:23.335Z,1002.59
2022-09-21T01:32:23.305Z,1002.62
2022-09-21T01:33:23.287Z,1002.64
2022-09-21T01:34:23.265Z,1002.61
2022-09-21T01:35:23.248Z,1002.61
2022-09-21T01:36:23.230Z,1002.63
2022-09-21T01:37:23.211Z,1002.61
2022-09-21T01:38:23.187Z,1002.65
2022-09-21T01:39:23.174Z,1002.63
2022-09-21T01:40:23.170Z,1002.66
2022-09-21T01:41:23.132Z,1002.68
2022-09-21T01:42:23.112Z,1002.68
2022-09-21T01:43:23.095Z,1002.73
2022-09-21T01:44:23.073Z,1002.70
2022-09-21T01:45:23.103Z,1002.70
2022-09-21T01:46:23.038Z,1002.71
2022-09-21T01:47:23.016Z,1002.71
2022-09-21T01:48:22.996Z,1002.72
2022-09-21T01:49:22.978Z,1002.71
2022-09-21T01:50:22.957Z,1002.69
2022-09-21T01:51:22.940Z,1002.70
2022-09-21T01:52:22.917Z,1002.69
2022-09-21T01:53:22.900Z,1002.70
2022-09-21T01:54:22.884Z,1002.72
2022-09-21T01:55:22.861Z,1002.70
2022-09-21T01:56:22.839Z,1002.71
2022-09-21T01:57:22.835Z,1002.69
2022-09-21T01:58:22.801Z,1002.72
2022-09-21T01:59:22.803Z,1002.70
2022-09-21T02:00:22.765Z,1002.71
2022-09-21T02:01:22.745Z,1002.69
2022-09-21T02:02:22.724Z,1002.69
2022-09-21T02:03:22.709Z,1002.68
2022-09-21T02:04:22.683Z,1002.70
2022-09-21T02:05:22.668Z,1002.66
2022-09-21T02:06:22.646Z,1002.67
2022-09-21T02:07:22.626Z,1002.67
2022-09-21T02:08:22.609Z,1002.65
2022-09-21T02:09:22.587Z,1002.66
2022-09-21T02:10:22.567Z,1002.65
2022-09-21T02:11:22.555Z,1002.61
2022-09-21T02:12:22.531Z,1002.62
2022-09-21T02:13:22.532Z,1002.60
2022-09-21T02:14:22.547Z,1002.61
2022-09-21T02:15:22.484Z,1002.61
2022-09-21T02:16:22.498Z,1002.61
2022-09-21T02:17:22.450Z,1002.62
2022-09-21T02:18:22.423Z,1002.58
2022-09-21T02:19:22.395Z,1002.58
2022-09-21T02:20:22.387Z,1002.61
2022-09-21T02:21:22.351Z,1002.61
2022-09-21T02:22:22.342Z,1002.61
2022-09-21T02:23:22.317Z,1002.60
2022-09-21T02:24:22.319Z,1002.58
2022-09-21T02:25:22.275Z,1002.63
2022-09-21T02:26:22.256Z,1002.63
2022-09-21T02:27:22.237Z,1002.64
2022-09-21T02:28:22.222Z,1002.62
2022-09-21T02:29:22.195Z,1002.65
2022-09-21T02:30:22.203Z,1002.59
2022-09-21T02:31:22.188Z,1002.61
2022-09-21T02:32:22.141Z,1002.61
2022-09-21T02:33:22.120Z,1002.63
2022-09-21T02:34:22.102Z,1002.61
2022-09-21T02:35:22.099Z,1002.62
2022-09-21T02:36:22.062Z,1002.60
2022-09-21T02:37:22.038Z,1002.60
2022-09-21T02:38:22.017Z,1002.59
2022-09-21T02:39:22.002Z,1002.60
2022-09-21T02:40:22.019Z,1002.60
2022-09-21T02:41:21.963Z,1002.61
2022-09-21T02:42:21.947Z,1002.58
2022-09-21T02:43:21.969Z,1002.61
2022-09-21T02:44:21.906Z,1002.61
2022-09-21T02:45:21.893Z,1002.62
2022-09-21T02:46:21.876Z,1002.62
2022-09-21T02:47:21.845Z,1002.62
2022-09-21T02:48:21.822Z,1002.62
2022-09-21T02:49:21.803Z,1002.63
2022-09-21T02:50:21.784Z,1002.60
2022-09-21T02:51:21.763Z,1002.58
2022-09-21T02:52:21.745Z,1002.61
2022-09-21T02:53:21.725Z,1002.60
2022-09-21T02:54:21.706Z,1002.58
2022-09-21T02:55:21.687Z,1002.57
2022-09-21T02:56:21.667Z,1002.59
2022-09-21T02:57:21.658Z,1002.62
2022-09-21T02:58:21.635Z,1002.56
2022-09-21T02:59:21.609Z,1002.61
2022-09-21T03:00:21.592Z,1002.61
2022-09-21T03:01:21.570Z,1002.60
2022-09-21T03:02:21.552Z,1002.60
2022-09-21T03:03:21.529Z,1002.60
2022-09-21T03:04:21.508Z,1002.58
2022-09-21T03:05:21.499Z,1002.56
2022-09-21T03:06:21.471Z,1002.54
2022-09-21T03:07:21.451Z,1002.60
2022-09-21T03:08:21.432Z,1002.58
2022-09-21T03:09:21.410Z,1002.56
2022-09-21T03:10:21.394Z,1002.55
2022-09-21T03:11:21.397Z,1002.54
2022-09-21T03:12:21.364Z,1002.57
2022-09-21T03:13:21.329Z,1002.56
2022-09-21T03:14:21.317Z,1002.60
2022-09-21T03:15:21.296Z,1002.59
2022-09-21T03:16:21.293Z,1002.55
2022-09-21T03:17:21.253Z,1002.61
2022-09-21T03:18:21.235Z,1002.60
2022-09-21T03:19:21.210Z,1002.60
2022-09-21T03:20:21.194Z,1002.64
2022-09-21T03:21:21.171Z,1002.57
2022-09-21T03:22:21.159Z,1002.61
2022-09-21T03:23:21.133Z,1002.64
2022-09-21T03:24:21.116Z,1002.64
2022-09-21T03:25:21.094Z,1002.64
2022-09-21T03:26:21.072Z,1002.67
2022-09-21T03:27:21.064Z,1002.69
2022-09-21T03:28:21.034Z,1002.66
2022-09-21T03:29:21.018Z,1002.69
2022-09-21T03:30:20.997Z,1002.70
2022-09-21T03:31:21.016Z,1002.69
2022-09-21T03:32:20.958Z,1002.73
2022-09-21T03:33:20.937Z,1002.71
2022-09-21T03:34:20.915Z,1002.74
2022-09-21T03:35:20.895Z,1002.74
2022-09-21T03:36:20.880Z,1002.74
2022-09-21T03:37:20.851Z,1002.75
2022-09-21T03:38:20.836Z,1002.75
2022-09-21T03:39:20.816Z,1002.76
2022-09-21T03:40:20.829Z,1002.78
2022-09-21T03:41:20.785Z,1002.78
2022-09-21T03:42:20.755Z,1002.76
2022-09-21T03:43:20.735Z,1002.74
2022-09-21T03:44:20.717Z,1002.76
2022-09-21T03:45:20.701Z,1002.73
2022-09-21T03:46:20.709Z,1002.81
2022-09-21T03:47:20.706Z,1002.75
2022-09-21T03:48:20.649Z,1002.79
2022-09-21T03:49:20.628Z,1002.74
2022-09-21T03:50:20.598Z,1002.76
2022-09-21T03:51:20.603Z,1002.78
2022-09-21T03:52:20.573Z,1002.77
2022-09-21T03:53:20.536Z,1002.81
2022-09-21T03:54:20.523Z,1002.80
2022-09-21T03:55:20.509Z,1002.81
2022-09-21T03:56:28.137Z,1002.83
2022-09-21T03:58:25.926Z,1002.83
2022-09-21T03:59:25.887Z,1002.83
2022-09-21T04:01:30.408Z,1002.82
2022-09-21T04:02:30.321Z,1002.84
2022-09-21T04:03:30.279Z,1002.81
2022-09-21T04:04:30.253Z,1002.84
2022-09-21T04:05:30.234Z,1002.84
2022-09-21T04:06:30.216Z,1002.84
2022-09-21T04:07:30.194Z,1002.89
2022-09-21T04:08:30.177Z,1002.85
2022-09-21T04:09:30.151Z,1002.79
2022-09-21T04:10:30.134Z,1002.79
2022-09-21T04:11:30.137Z,1002.82
2022-09-21T04:12:30.094Z,1002.84
2022-09-21T04:13:30.075Z,1002.81
2022-09-21T04:14:30.053Z,1002.82
2022-09-21T04:15:30.097Z,1002.78
2022-09-21T04:16:30.016Z,1002.78
2022-09-21T04:17:29.996Z,1002.79
2022-09-21T04:18:29.976Z,1002.78
2022-09-21T04:19:29.956Z,1002.80
2022-09-21T04:20:29.932Z,1002.81
2022-09-21T04:21:29.915Z,1002.84
2022-09-21T04:22:29.897Z,1002.85
2022-09-21T04:23:29.874Z,1002.87
2022-09-21T04:24:29.853Z,1002.87
2022-09-21T04:25:29.839Z,1002.88
2022-09-21T04:26:29.816Z,1002.91
2022-09-21T04:27:29.799Z,1002.88
2022-09-21T04:28:29.781Z,1002.89
2022-09-21T04:29:29.761Z,1002.91
2022-09-21T04:30:33.095Z,1002.89
2022-09-21T04:31:29.754Z,1002.89
2022-09-21T04:32:29.701Z,1002.90
2022-09-21T04:33:29.682Z,1002.89
2022-09-21T04:34:29.655Z,1002.90
2022-09-21T04:35:29.640Z,1002.88
2022-09-21T04:36:34.387Z,1002.91
2022-09-21T04:37:29.606Z,1002.88
2022-09-21T04:38:29.580Z,1002.92
2022-09-21T04:39:29.560Z,1002.93
2022-09-21T04:40:29.605Z,1002.94
2022-09-21T04:41:29.524Z,1002.94
2022-09-21T04:42:29.578Z,1002.89
2022-09-21T04:43:29.482Z,1002.95
2022-09-21T04:44:29.463Z,1002.93
2022-09-21T04:45:29.440Z,1002.93
2022-09-21T04:46:29.452Z,1002.93
2022-09-21T04:47:29.400Z,1002.97
2022-09-21T04:48:29.381Z,1003.03
2022-09-21T04:49:29.360Z,1003.00
2022-09-21T04:50:29.337Z,1003.03
2022-09-21T04:51:29.320Z,1003.04
2022-09-21T04:52:29.297Z,1003.00
2022-09-21T04:53:29.278Z,1003.05
2022-09-21T04:54:29.271Z,1003.07
2022-09-21T04:55:29.235Z,1003.05
2022-09-21T04:56:29.214Z,1003.05
2022-09-21T04:57:29.200Z,1003.07
2022-09-21T04:58:29.177Z,1003.08
2022-09-21T04:59:29.155Z,1003.03
2022-09-21T05:00:29.143Z,1003.03
2022-09-21T05:01:29.166Z,1003.06
2022-09-21T05:02:29.096Z,1003.06
2022-09-21T05:03:29.110Z,1003.03
2022-09-21T05:04:29.057Z,1003.05
2022-09-21T05:05:29.036Z,1003.08
2022-09-21T05:06:29.018Z,1003.06
2022-09-21T05:07:28.998Z,1003.07
2022-09-21T05:08:28.978Z,1003.09
2022-09-21T05:09:28.957Z,1003.09
2022-09-21T05:10:28.935Z,1003.11
2022-09-21T05:11:28.917Z,1003.11
2022-09-21T05:12:28.895Z,1003.13
2022-09-21T05:13:28.877Z,1003.15
2022-09-21T05:14:28.855Z,1003.11
2022-09-21T05:15:28.872Z,1003.13
2022-09-21T05:16:28.814Z,1003.15
2022-09-21T05:17:28.798Z,1003.15
2022-09-21T05:18:28.773Z,1003.13
2022-09-21T05:19:28.755Z,1003.17
2022-09-21T05:20:28.736Z,1003.15
2022-09-21T05:21:28.716Z,1003.24
2022-09-21T05:22:28.694Z,1003.25
2022-09-21T05:23:28.676Z,1003.24
2022-09-21T05:24:28.655Z,1003.27
2022-09-21T05:25:28.633Z,1003.24
2022-09-21T05:26:28.613Z,1003.28
2022-09-21T05:27:28.595Z,1003.27
2022-09-21T05:28:28.578Z,1003.26
2022-09-21T05:29:28.552Z,1003.29
2022-09-21T05:30:28.586Z,1003.25
2022-09-21T05:31:28.536Z,1003.31
2022-09-21T05:32:28.494Z,1003.30
2022-09-21T05:33:28.473Z,1003.33
2022-09-21T05:34:30.943Z,1003.27
2022-09-21T05:35:28.432Z,1003.30
2022-09-21T05:36:28.414Z,1003.28
2022-09-21T05:37:28.395Z,1003.26
2022-09-21T05:38:28.372Z,1003.28
2022-09-21T05:39:28.354Z,1003.26
2022-09-21T05:40:28.406Z,1003.24
2022-09-21T05:41:28.317Z,1003.30
2022-09-21T05:42:28.296Z,1003.27
2022-09-21T05:43:28.270Z,1003.29
2022-09-21T05:44:28.251Z,1003.27
2022-09-21T05:45:28.232Z,1003.27
2022-09-21T05:46:28.296Z,1003.27
2022-09-21T05:47:28.202Z,1003.25
2022-09-21T05:48:28.171Z,1003.27
2022-09-21T05:49:28.150Z,1003.27
2022-09-21T05:50:28.130Z,1003.28
2022-09-21T05:51:28.110Z,1003.32
2022-09-21T05:52:28.091Z,1003.32
2022-09-21T05:53:28.068Z,1003.30
2022-09-21T05:54:28.050Z,1003.35
2022-09-21T05:55:28.032Z,1003.32
2022-09-21T05:56:28.009Z,1003.31
2022-09-21T05:57:30.783Z,1003.35
2022-09-21T05:58:27.970Z,1003.36
2022-09-21T05:59:27.951Z,1003.39
2022-09-21T06:00:27.932Z,1003.40
2022-09-21T06:01:27.952Z,1003.37
2022-09-21T06:02:27.930Z,1003.36
2022-09-21T06:03:27.880Z,1003.37
2022-09-21T06:04:27.851Z,1003.38
2022-09-21T06:05:27.830Z,1003.36
2022-09-21T06:06:27.808Z,1003.40
2022-09-21T06:07:27.790Z,1003.45
2022-09-21T06:08:27.770Z,1003.43
2022-09-21T06:09:27.751Z,1003.41
2022-09-21T06:10:27.734Z,1003.43
2022-09-21T06:11:27.712Z,1003.39
2022-09-21T06:12:27.694Z,1003.41
2022-09-21T06:13:27.671Z,1003.41
2022-09-21T06:14:27.652Z,1003.43
2022-09-21T06:15:27.643Z,1003.44
2022-09-21T06:16:27.709Z,1003.47
2022-09-21T06:17:27.596Z,1003.45
2022-09-21T06:18:27.575Z,1003.45
2022-09-21T06:19:27.554Z,1003.48
2022-09-21T06:20:27.595Z,1003.48
2022-09-21T06:21:27.516Z,1003.50
2022-09-21T06:22:27.496Z,1003.49
2022-09-21T06:23:27.473Z,1003.47
2022-09-21T06:24:27.458Z,1003.52
2022-09-21T06:25:27.435Z,1003.49
2022-09-21T06:26:27.419Z,1003.53
2022-09-21T06:27:27.399Z,1003.53
2022-09-21T06:28:27.380Z,1003.52
2022-09-21T06:29:27.359Z,1003.56
2022-09-21T06:30:27.434Z,1003.55
2022-09-21T06:31:27.319Z,1003.55
2022-09-21T06:32:27.303Z,1003.51
2022-09-21T06:33:27.288Z,1003.52
2022-09-21T06:34:27.277Z,1003.48
2022-09-21T06:35:27.239Z,1003.55
2022-09-21T06:36:27.223Z,1003.55
2022-09-21T06:37:27.204Z,1003.53
2022-09-21T06:38:27.184Z,1003.53
2022-09-21T06:39:27.167Z,1003.55
2022-09-21T06:40:27.308Z,1003.56
2022-09-21T06:41:27.127Z,1003.57
2022-09-21T06:42:27.121Z,1003.56
2022-09-21T06:43:27.091Z,1003.60
2022-09-21T06:44:27.071Z,1003.54
2022-09-21T06:45:27.053Z,1003.59
2022-09-21T06:46:27.031Z,1003.58
2022-09-21T06:47:27.019Z,1003.58
2022-09-21T06:48:26.995Z,1003.60
2022-09-21T06:49:26.978Z,1003.62
2022-09-21T06:50:27.040Z,1003.64
2022-09-21T06:51:26.939Z,1003.68
2022-09-21T06:52:26.920Z,1003.70
2022-09-21T06:53:26.907Z,1003.68
2022-09-21T06:54:26.879Z,1003.70
2022-09-21T06:55:26.862Z,1003.65
2022-09-21T06:56:26.848Z,1003.72
2022-09-21T06:57:26.827Z,1003.71
2022-09-21T06:58:26.811Z,1003.68
2022-09-21T06:59:26.791Z,1003.69
2022-09-21T07:00:26.842Z,1003.72
2022-09-21T07:01:26.842Z,1003.73
2022-09-21T07:02:26.746Z,1003.75
2022-09-21T07:03:26.713Z,1003.73
2022-09-21T07:04:26.694Z,1003.77
2022-09-21T07:05:26.677Z,1003.76
2022-09-21T07:06:26.694Z,1003.77
2022-09-21T07:07:26.636Z,1003.74
2022-09-21T07:10:26.595Z,1003.78
2022-09-21T07:11:26.563Z,1003.80
2022-09-21T07:12:26.544Z,1003.77
2022-09-21T07:13:26.546Z,1003.78
2022-09-21T07:14:26.506Z,1003.81
2022-09-21T07:15:26.485Z,1003.80
2022-09-21T07:16:26.503Z,1003.80
2022-09-21T07:17:26.449Z,1003.81
2022-09-21T07:18:26.449Z,1003.86
2022-09-21T07:19:26.410Z,1003.83
2022-09-21T07:20:26.393Z,1003.87
2022-09-21T07:21:26.378Z,1003.85
2022-09-21T07:22:26.384Z,1003.86
2022-09-21T07:23:26.336Z,1003.84
2022-09-21T07:24:26.317Z,1003.82
2022-09-21T07:25:26.297Z,1003.89
2022-09-21T07:26:26.283Z,1003.85
2022-09-21T07:27:26.260Z,1003.84
2022-09-21T07:28:26.247Z,1003.90
2022-09-21T07:29:26.224Z,1003.86
2022-09-21T07:30:26.211Z,1003.87
2022-09-21T07:31:26.227Z,1003.86
2022-09-21T07:32:26.172Z,1003.86
2022-09-21T07:33:26.150Z,1003.88
2022-09-21T07:34:26.131Z,1003.93
2022-09-21T07:35:26.113Z,1003.92
2022-09-21T07:36:26.112Z,1003.91
2022-09-21T07:37:26.078Z,1003.91
2022-09-21T07:38:26.085Z,1003.94
2022-09-21T07:39:26.039Z,1003.95
2022-09-21T07:40:26.074Z,1003.91
2022-09-21T07:41:26.014Z,1003.93
2022-09-21T07:42:25.983Z,1003.94
2022-09-21T07:43:25.972Z,1003.98
2022-09-21T07:44:25.950Z,1003.99
2022-09-21T07:45:25.984Z,1004.01
2022-09-21T07:46:25.915Z,1003.99
2022-09-21T07:47:25.896Z,1004.00
2022-09-21T07:48:25.879Z,1003.99
2022-09-21T07:49:25.866Z,1003.98
2022-09-21T07:50:25.843Z,1004.01
2022-09-21T07:51:25.828Z,1003.99
2022-09-21T07:52:25.809Z,1003.98
2022-09-21T07:53:25.813Z,1004.02
2022-09-21T07:54:25.775Z,1004.00
2022-09-21T07:55:25.754Z,1004.02
2022-09-21T07:56:25.739Z,1004.02
2022-09-21T07:57:25.722Z,1004.06
2022-09-21T07:58:25.708Z,1004.04
2022-09-21T07:59:25.687Z,1004.06
2022-09-21T08:00:25.670Z,1004.04
2022-09-21T08:01:25.719Z,1004.06
2022-09-21T08:02:25.685Z,1004.05
2022-09-21T08:03:25.623Z,1004.06
2022-09-21T08:04:25.613Z,1004.08
2022-09-21T08:05:25.589Z,1004.11
2022-09-21T08:06:25.569Z,1004.10
2022-09-21T08:07:25.577Z,1004.09
2022-09-21T08:08:25.543Z,1004.13
2022-09-21T08:09:25.519Z,1004.09
2022-09-21T08:10:25.504Z,1004.10
2022-09-21T08:11:25.484Z,1004.16
2022-09-21T08:12:25.467Z,1004.14
2022-09-21T08:13:25.452Z,1004.17
2022-09-21T08:14:26.684Z,1004.17
2022-09-21T08:15:47.498Z,1004.17
2022-09-21T08:16:25.465Z,1004.21
2022-09-21T08:17:25.384Z,1004.19
2022-09-21T08:18:25.370Z,1004.21
2022-09-21T08:19:25.349Z,1004.20
2022-09-21T08:20:25.338Z,1004.21
2022-09-21T08:21:25.316Z,1004.22
2022-09-21T08:22:25.301Z,1004.21
2022-09-21T08:23:25.290Z,1004.17
2022-09-21T08:24:25.272Z,1004.22
2022-09-21T08:25:25.250Z,1004.23
2022-09-21T08:26:25.258Z,1004.20
2022-09-21T08:27:25.398Z,1004.19
2022-09-21T08:28:25.208Z,1004.21
2022-09-21T08:29:25.199Z,1004.18
2022-09-21T08:30:25.176Z,1004.19
2022-09-21T08:31:25.193Z,1004.22
2022-09-21T08:32:49.464Z,1004.18
2022-09-21T08:33:29.211Z,1004.19
2022-09-21T08:34:25.112Z,1004.20
2022-09-21T08:35:25.099Z,1004.19
2022-09-21T08:36:25.082Z,1004.19
2022-09-21T08:37:25.066Z,1004.19
2022-09-21T08:38:25.051Z,1004.12
2022-09-21T08:39:25.031Z,1004.12
2022-09-21T08:40:25.087Z,1004.12
2022-09-21T08:41:25.010Z,1004.11
2022-09-21T08:42:24.990Z,1004.14
2022-09-21T08:43:24.974Z,1004.15
2022-09-21T08:44:24.959Z,1004.15
2022-09-21T08:45:24.947Z,1004.10
2022-09-21T08:46:25.060Z,1004.12
2022-09-21T08:47:24.911Z,1004.13
2022-09-21T08:48:29.090Z,1004.14
2022-09-21T08:49:24.882Z,1004.15
2022-09-21T08:50:24.867Z,1004.12
2022-09-21T08:51:24.859Z,1004.07
2022-09-21T08:52:24.857Z,1004.10
2022-09-21T08:53:24.831Z,1004.06
2022-09-21T08:54:24.810Z,1004.06
2022-09-21T08:55:24.809Z,1004.06
2022-09-21T08:56:33.035Z,1004.09
2022-09-21T08:57:24.773Z,1004.08
2022-09-21T08:58:24.776Z,1004.06
2022-09-21T08:59:24.743Z,1004.01
2022-09-21T09:00:24.816Z,1004.06
2022-09-21T09:01:24.819Z,1004.06
2022-09-21T09:02:24.788Z,1004.08
2022-09-21T09:03:24.688Z,1004.08
2022-09-21T09:04:24.673Z,1004.05
2022-09-21T09:05:24.661Z,1004.05
2022-09-21T09:06:26.765Z,1004.06
2022-09-21T09:07:24.636Z,1004.08
2022-09-21T09:08:24.623Z,1004.06
2022-09-21T09:09:24.610Z,1004.03
2022-09-21T09:10:24.596Z,1004.04
2022-09-21T09:11:24.585Z,1004.02
2022-09-21T09:12:24.574Z,1004.00
2022-09-21T09:13:24.560Z,1004.05
2022-09-21T09:14:24.551Z,1004.02
2022-09-21T09:15:24.540Z,1004.01
2022-09-21T09:16:24.621Z,1004.05
2022-09-21T09:17:24.512Z,1003.98
2022-09-21T09:18:24.498Z,1004.01
2022-09-21T09:19:24.488Z,1004.00
2022-09-21T09:20:24.476Z,1003.98
2022-09-21T09:21:30.648Z,1004.00
2022-09-21T09:22:24.455Z,1003.99
2022-09-21T09:23:24.441Z,1003.95
2022-09-21T09:24:24.427Z,1003.98
2022-09-21T09:25:24.418Z,1003.96
2022-09-21T09:26:24.411Z,1003.95
2022-09-21T09:27:24.396Z,1003.99
2022-09-21T09:28:24.385Z,1003.94
2022-09-21T09:29:24.373Z,1003.97
2022-09-21T09:30:24.364Z,1003.93
2022-09-21T09:31:24.396Z,1003.94
2022-09-21T09:32:24.345Z,1003.92
2022-09-21T09:33:24.331Z,1003.90
2022-09-21T09:34:24.321Z,1003.87
2022-09-21T09:35:24.308Z,1003.92
2022-09-21T09:36:46.492Z,1003.91
2022-09-21T09:37:24.295Z,1003.87
2022-09-21T09:38:24.278Z,1003.89
2022-09-21T09:39:24.275Z,1003.93
2022-09-21T09:40:24.281Z,1003.89
2022-09-21T09:41:24.253Z,1003.90
2022-09-21T09:42:24.241Z,1003.85
2022-09-21T09:43:24.230Z,1003.88
2022-09-21T09:44:24.224Z,1003.83
2022-09-21T09:45:26.158Z,1003.80
2022-09-21T09:46:24.223Z,1003.80
2022-09-21T09:47:24.195Z,1003.81
2022-09-21T09:48:24.186Z,1003.78
2022-09-21T09:49:24.175Z,1003.81
2022-09-21T09:50:24.163Z,1003.76
2022-09-21T09:51:24.157Z,1003.75
2022-09-21T09:52:24.147Z,1003.75
2022-09-21T09:53:24.149Z,1003.76
2022-09-21T09:54:24.129Z,1003.71
2022-09-21T09:55:24.123Z,1003.69
2022-09-21T09:56:24.112Z,1003.75
2022-09-21T09:57:24.104Z,1003.70
2022-09-21T09:58:24.100Z,1003.72
2022-09-21T09:59:24.092Z,1003.73
2022-09-21T10:00:24.076Z,1003.67
2022-09-21T10:01:24.112Z,1003.69
2022-09-21T10:02:24.061Z,1003.68
2022-09-21T10:03:24.062Z,1003.67
2022-09-21T10:04:24.102Z,1003.68
2022-09-21T10:05:24.047Z,1003.69
2022-09-21T10:06:31.261Z,1003.71
2022-09-21T10:08:28.116Z,1003.71
2022-09-21T10:09:28.066Z,1003.71
2022-09-21T10:11:33.430Z,1003.74
2022-09-21T10:12:33.284Z,1003.73
2022-09-21T10:14:37.268Z,1003.70
2022-09-21T10:15:37.298Z,1003.70
2022-09-21T10:17:30.158Z,1003.66
2022-09-21T10:18:30.146Z,1003.63
2022-09-21T10:20:34.142Z,1003.65
2022-09-21T10:21:34.128Z,1003.65
2022-09-21T10:23:38.141Z,1003.63
2022-09-21T10:24:38.094Z,1003.63
2022-09-21T10:26:42.071Z,1003.64
2022-09-21T10:27:42.062Z,1003.65
2022-09-21T10:29:46.068Z,1003.58
2022-09-21T10:30:46.056Z,1003.56
2022-09-21T10:32:50.020Z,1003.57
2022-09-21T10:33:50.002Z,1003.58
2022-09-21T10:35:54.039Z,1003.58
2022-09-21T10:36:53.963Z,1003.57
2022-09-21T10:38:58.013Z,1003.56
2022-09-21T10:39:57.931Z,1003.52
2022-09-21T10:42:01.935Z,1003.50
2022-09-21T10:43:01.908Z,1003.52
2022-09-21T10:45:05.892Z,1003.49
2022-09-21T10:46:05.894Z,1003.48
2022-09-21T10:48:09.884Z,1003.52
2022-09-21T10:49:09.835Z,1003.46
2022-09-21T10:51:13.938Z,1003.43
2022-09-21T10:52:13.871Z,1003.43
2022-09-21T10:54:18.075Z,1003.42
2022-09-21T10:55:17.853Z,1003.49
2022-09-21T10:56:18.077Z,1003.43
2022-09-21T10:57:17.845Z,1003.46
2022-09-21T10:58:17.825Z,1003.48
2022-09-21T10:59:17.817Z,1003.46
2022-09-21T11:00:17.817Z,1003.41
2022-09-21T11:01:17.841Z,1003.44
2022-09-21T11:02:17.871Z,1003.39
2022-09-21T11:03:17.846Z,1003.36
2022-09-21T11:04:17.839Z,1003.37
2022-09-21T11:05:17.808Z,1003.39
2022-09-21T11:06:17.793Z,1003.39
2022-09-21T11:07:17.782Z,1003.35
2022-09-21T11:08:17.775Z,1003.35
2022-09-21T11:09:17.769Z,1003.37
2022-09-21T11:10:17.769Z,1003.39
2022-09-21T11:11:17.762Z,1003.39
2022-09-21T11:12:17.757Z,1003.36
2022-09-21T11:13:17.755Z,1003.36
2022-09-21T11:14:17.750Z,1003.32
2022-09-21T11:15:17.742Z,1003.36
2022-09-21T11:16:17.786Z,1003.35
2022-09-21T11:17:17.733Z,1003.33
2022-09-21T11:18:17.728Z,1003.32
2022-09-21T11:19:17.728Z,1003.33
2022-09-21T11:20:17.718Z,1003.39
2022-09-21T11:21:17.716Z,1003.38
2022-09-21T11:22:17.711Z,1003.37
2022-09-21T11:23:17.702Z,1003.37
2022-09-21T11:24:17.703Z,1003.39
2022-09-21T11:25:17.697Z,1003.35
2022-09-21T11:26:17.695Z,1003.36
2022-09-21T11:27:17.692Z,1003.34
2022-09-21T11:28:17.684Z,1003.36
2022-09-21T11:29:17.774Z,1003.36
2022-09-21T11:30:17.676Z,1003.33
2022-09-21T11:31:17.709Z,1003.33
2022-09-21T11:32:17.672Z,1003.32
2022-09-21T11:33:17.663Z,1003.35
2022-09-21T11:34:17.660Z,1003.30
2022-09-21T11:35:17.658Z,1003.34
2022-09-21T11:36:17.665Z,1003.28
2022-09-21T11:37:17.651Z,1003.30
2022-09-21T11:38:17.657Z,1003.31
2022-09-21T11:39:17.643Z,1003.29
2022-09-21T11:40:17.728Z,1003.25
2022-09-21T11:41:17.636Z,1003.28
2022-09-21T11:42:17.634Z,1003.24
2022-09-21T11:43:19.903Z,1003.27
2022-09-21T11:44:19.141Z,1003.26
2022-09-21T11:45:17.620Z,1003.23
2022-09-21T11:46:17.671Z,1003.23
2022-09-21T11:47:17.614Z,1003.22
2022-09-21T11:48:17.614Z,1003.20
2022-09-21T11:49:17.607Z,1003.20
2022-09-21T11:50:31.585Z,1003.18
2022-09-21T11:51:17.602Z,1003.16
2022-09-21T11:52:17.598Z,1003.12
2022-09-21T11:53:17.594Z,1003.10
2022-09-21T11:54:17.596Z,1003.13
2022-09-21T11:55:17.589Z,1003.14
2022-09-21T11:56:17.583Z,1003.10
2022-09-21T11:57:17.578Z,1003.11
2022-09-21T11:58:17.580Z,1003.12
2022-09-21T11:59:17.586Z,1003.11
2022-09-21T12:00:17.574Z,1003.11
2022-09-21T12:01:17.565Z,1003.18
2022-09-21T12:02:17.711Z,1003.13
2022-09-21T12:03:17.562Z,1003.13
2022-09-21T12:04:17.570Z,1003.07
2022-09-21T12:05:17.557Z,1003.06
2022-09-21T12:06:17.554Z,1003.09
2022-09-21T12:07:17.556Z,1003.07
2022-09-21T12:08:17.543Z,1003.04
2022-09-21T12:09:17.542Z,1003.01
2022-09-21T12:10:17.543Z,1003.05
2022-09-21T12:11:17.534Z,1003.07
2022-09-21T12:12:17.532Z,1003.02
2022-09-21T12:13:17.525Z,1003.00
2022-09-21T12:14:17.521Z,1002.96
2022-09-21T12:15:17.575Z,1002.98
2022-09-21T12:16:17.550Z,1002.98
2022-09-21T12:17:17.509Z,1002.95
2022-09-21T12:18:17.510Z,1002.92
2022-09-21T12:19:17.503Z,1002.92
2022-09-21T12:20:17.497Z,1002.94
2022-09-21T12:21:17.498Z,1002.96
2022-09-21T12:22:17.489Z,1002.94
2022-09-21T12:23:17.485Z,1002.94
2022-09-21T12:24:17.479Z,1002.93
2022-09-21T12:25:17.475Z,1002.87
2022-09-21T12:26:17.471Z,1002.91